RJTR(METAR)
06/28 22:58
METAR RJTR 281358Z AUTO 18003KT 10SM CLR 21/20 A2994 RMK AO2 LTG DSNT
S SLP139 T02080196 $=
戻る
トップページへ戻る
IMOC Co,.Ltd.